createdAt,value
2023-12-14T00:01:20.894Z,-0.26
2023-12-14T00:03:48.423Z,-0.26
2023-12-14T00:06:15.983Z,-0.27
2023-12-14T00:08:43.485Z,-0.28
2023-12-14T00:11:12.233Z,-0.27
2023-12-14T00:13:40.054Z,-0.27
2023-12-14T00:16:08.644Z,-0.29
2023-12-14T00:18:37.111Z,-0.30
2023-12-14T00:21:04.977Z,-0.31
2023-12-14T00:23:32.356Z,-0.32
2023-12-14T00:25:59.720Z,-0.33
2023-12-14T00:28:29.591Z,-0.34
2023-12-14T00:30:58.622Z,-0.33
2023-12-14T00:33:26.213Z,-0.33
2023-12-14T00:35:53.817Z,-0.34
2023-12-14T00:38:21.369Z,-0.35
2023-12-14T00:40:48.943Z,-0.35
2023-12-14T00:43:16.953Z,-0.35
2023-12-14T00:45:44.937Z,-0.35
2023-12-14T00:48:12.445Z,-0.35
2023-12-14T00:50:39.863Z,-0.35
2023-12-14T00:53:07.271Z,-0.37
2023-12-14T00:55:34.852Z,-0.38
2023-12-14T00:58:02.271Z,-0.40
2023-12-14T01:00:30.174Z,-0.40
2023-12-14T01:02:57.538Z,-0.41
2023-12-14T01:05:25.149Z,-0.40
2023-12-14T01:07:52.583Z,-0.41
2023-12-14T01:10:19.927Z,-0.42
2023-12-14T01:12:47.288Z,-0.42
2023-12-14T01:15:15.475Z,-0.43
2023-12-14T01:17:43.000Z,-0.42
2023-12-14T01:20:11.145Z,-0.42
2023-12-14T01:22:38.744Z,-0.41
2023-12-14T01:25:06.533Z,-0.41
2023-12-14T01:27:33.866Z,-0.41
2023-12-14T01:30:01.205Z,-0.42
2023-12-14T01:32:28.524Z,-0.43
2023-12-14T01:34:55.911Z,-0.44
2023-12-14T01:37:23.281Z,-0.46
2023-12-14T01:39:50.616Z,-0.47
2023-12-14T01:42:17.948Z,-0.47
2023-12-14T01:44:45.369Z,-0.47
2023-12-14T01:47:12.808Z,-0.48
2023-12-14T01:49:42.586Z,-0.48
2023-12-14T01:52:10.152Z,-0.48
2023-12-14T01:54:37.864Z,-0.49
2023-12-14T01:57:05.388Z,-0.50
2023-12-14T01:59:32.760Z,-0.49
2023-12-14T02:02:00.665Z,-0.50
2023-12-14T02:04:28.337Z,-0.52
2023-12-14T02:06:55.812Z,-0.54
2023-12-14T02:09:23.157Z,-0.55
2023-12-14T02:11:50.713Z,-0.56
2023-12-14T02:14:18.370Z,-0.56
2023-12-14T02:16:46.219Z,-0.56
2023-12-14T02:19:13.866Z,-0.56
2023-12-14T02:21:41.258Z,-0.56
2023-12-14T02:24:08.675Z,-0.55
2023-12-14T02:26:36.048Z,-0.54
2023-12-14T02:29:03.445Z,-0.54
2023-12-14T02:31:30.937Z,-0.54
2023-12-14T02:33:58.480Z,-0.54
2023-12-14T02:36:25.821Z,-0.55
2023-12-14T02:38:53.307Z,-0.54
2023-12-14T02:41:20.782Z,-0.54
2023-12-14T02:43:48.154Z,-0.53
2023-12-14T02:46:16.843Z,-0.53
2023-12-14T02:48:44.786Z,-0.52
2023-12-14T02:51:16.105Z,-0.52
2023-12-14T02:53:43.718Z,-0.52
2023-12-14T02:56:12.174Z,-0.51
2023-12-14T02:58:40.006Z,-0.50
2023-12-14T03:01:07.686Z,-0.49
2023-12-14T03:03:35.293Z,-0.50
2023-12-14T03:06:02.878Z,-0.51
2023-12-14T03:08:30.438Z,-0.50
2023-12-14T03:10:58.548Z,-0.50
2023-12-14T03:13:26.079Z,-0.49
2023-12-14T03:15:53.975Z,-0.49
2023-12-14T03:18:21.628Z,-0.49
2023-12-14T03:20:49.000Z,-0.47
2023-12-14T03:23:16.407Z,-0.46
2023-12-14T03:25:43.917Z,-0.47
2023-12-14T03:28:11.375Z,-0.48
2023-12-14T03:30:38.747Z,-0.48
2023-12-14T03:33:08.246Z,-0.49
2023-12-14T03:35:37.107Z,-0.49
2023-12-14T03:38:04.523Z,-0.48
2023-12-14T03:40:32.075Z,-0.47
2023-12-14T03:42:59.635Z,-0.47
2023-12-14T03:45:27.158Z,-0.48
2023-12-14T03:47:54.597Z,-0.48
2023-12-14T03:50:22.030Z,-0.48
2023-12-14T03:52:49.576Z,-0.48
2023-12-14T03:55:17.174Z,-0.47
2023-12-14T03:57:44.571Z,-0.46
2023-12-14T04:00:13.890Z,-0.47
2023-12-14T04:02:41.487Z,-0.47
2023-12-14T04:05:11.804Z,-0.48
2023-12-14T04:07:41.960Z,-0.48
2023-12-14T04:10:10.497Z,-0.49
2023-12-14T04:12:38.250Z,-0.48
2023-12-14T04:15:07.190Z,-0.48
2023-12-14T04:17:34.829Z,-0.47
2023-12-14T04:20:02.487Z,-0.47
2023-12-14T04:22:30.072Z,-0.48
2023-12-14T04:24:57.451Z,-0.48
2023-12-14T04:27:30.052Z,-0.48
2023-12-14T04:29:57.466Z,-0.48
2023-12-14T04:32:24.782Z,-0.48
2023-12-14T04:34:52.385Z,-0.47
2023-12-14T04:37:19.788Z,-0.47
2023-12-14T04:39:47.154Z,-0.47
2023-12-14T04:42:14.496Z,-0.45
2023-12-14T04:44:41.937Z,-0.43
2023-12-14T04:47:09.724Z,-0.42
2023-12-14T04:49:37.275Z,-0.43
2023-12-14T04:52:05.369Z,-0.44
2023-12-14T04:54:32.965Z,-0.43
2023-12-14T04:57:00.304Z,-0.42
2023-12-14T04:59:27.658Z,-0.41
2023-12-14T05:01:55.080Z,-0.40
2023-12-14T05:04:22.449Z,-0.40
2023-12-14T05:06:49.803Z,-0.40
2023-12-14T05:09:17.160Z,-0.40
2023-12-14T05:11:44.586Z,-0.41
2023-12-14T05:14:11.994Z,-0.41
2023-12-14T05:16:40.530Z,-0.41
2023-12-14T05:19:08.275Z,-0.41
2023-12-14T05:21:35.703Z,-0.41
2023-12-14T05:24:04.047Z,-0.42
2023-12-14T05:26:31.457Z,-0.44
2023-12-14T05:28:58.845Z,-0.44
2023-12-14T05:31:26.177Z,-0.44
2023-12-14T05:33:53.682Z,-0.43
2023-12-14T05:36:21.137Z,-0.42
2023-12-14T05:38:48.495Z,-0.41
2023-12-14T05:41:16.847Z,-0.41
2023-12-14T05:43:44.334Z,-0.41
2023-12-14T05:46:21.966Z,-0.42
2023-12-14T05:48:50.760Z,-0.42
2023-12-14T05:51:31.349Z,-0.42
2023-12-14T05:53:58.977Z,-0.42
2023-12-14T05:56:26.842Z,-0.41
2023-12-14T05:58:54.250Z,-0.40
2023-12-14T06:01:21.750Z,-0.39
2023-12-14T06:03:49.415Z,-0.38
2023-12-14T06:06:17.064Z,-0.37
2023-12-14T06:08:44.583Z,-0.37
2023-12-14T06:11:12.020Z,-0.36
2023-12-14T06:13:39.809Z,-0.36
2023-12-14T06:16:13.544Z,-0.36
2023-12-14T06:18:43.236Z,-0.36
2023-12-14T06:21:12.358Z,-0.36
2023-12-14T06:23:39.736Z,-0.35
2023-12-14T06:26:07.487Z,-0.35
2023-12-14T06:28:35.073Z,-0.35
2023-12-14T06:31:02.785Z,-0.35
2023-12-14T06:33:30.798Z,-0.34
2023-12-14T06:35:58.986Z,-0.32
2023-12-14T06:38:26.354Z,-0.30
2023-12-14T06:40:55.146Z,-0.30
2023-12-14T06:43:22.541Z,-0.28
2023-12-14T06:45:49.864Z,-0.27
2023-12-14T06:48:17.375Z,-0.26
2023-12-14T06:50:47.340Z,-0.23
2023-12-14T06:53:17.204Z,-0.20
2023-12-14T06:55:44.814Z,-0.17
2023-12-14T06:58:12.895Z,-0.15
2023-12-14T07:00:40.380Z,-0.14
2023-12-14T07:03:07.800Z,-0.13
2023-12-14T07:05:35.821Z,-0.13
2023-12-14T07:08:03.387Z,-0.16
2023-12-14T07:10:30.886Z,-0.15
2023-12-14T07:12:59.928Z,-0.14
2023-12-14T07:15:27.839Z,-0.14
2023-12-14T07:17:55.476Z,-0.13
2023-12-14T07:20:23.148Z,-0.12
2023-12-14T07:22:50.561Z,-0.10
2023-12-14T07:25:18.020Z,-0.09
2023-12-14T07:27:47.650Z,-0.07
2023-12-14T07:30:15.270Z,-0.04
2023-12-14T07:32:42.679Z,-0.03
2023-12-14T07:35:11.502Z,-0.04
2023-12-14T07:37:38.971Z,-0.03
2023-12-14T07:40:07.188Z,-0.00
2023-12-14T07:42:34.839Z,0.03
2023-12-14T07:45:02.417Z,0.06
2023-12-14T07:47:29.878Z,0.08
2023-12-14T07:49:57.413Z,0.08
2023-12-14T07:52:24.790Z,0.08
2023-12-14T07:54:52.137Z,0.08
2023-12-14T07:57:19.657Z,0.08
2023-12-14T07:59:47.689Z,0.07
2023-12-14T08:02:15.134Z,0.06
2023-12-14T08:04:42.612Z,0.05
2023-12-14T08:07:10.040Z,0.05
2023-12-14T08:09:37.441Z,0.04
2023-12-14T08:12:05.441Z,0.04
2023-12-14T08:14:36.152Z,0.05
2023-12-14T08:17:04.049Z,0.06
2023-12-14T08:19:31.639Z,0.07
2023-12-14T08:21:59.100Z,0.08
2023-12-14T08:24:26.452Z,0.11
2023-12-14T08:26:54.061Z,0.11
2023-12-14T08:29:21.615Z,0.12
2023-12-14T08:31:49.178Z,0.15
2023-12-14T08:34:16.676Z,0.15
2023-12-14T08:36:44.248Z,0.18
2023-12-14T08:39:11.641Z,0.21
2023-12-14T08:41:39.016Z,0.21
2023-12-14T08:44:06.391Z,0.21
2023-12-14T08:46:44.801Z,0.20
2023-12-14T08:49:13.023Z,0.20
2023-12-14T08:51:40.649Z,0.20
2023-12-14T08:54:08.611Z,0.23
2023-12-14T08:56:36.549Z,0.25
2023-12-14T08:59:05.268Z,0.26
2023-12-14T09:01:33.160Z,0.25
2023-12-14T09:04:01.343Z,0.25
2023-12-14T09:06:28.849Z,0.26
2023-12-14T09:08:56.363Z,0.29
2023-12-14T09:11:23.788Z,0.30
2023-12-14T09:13:52.068Z,0.29
2023-12-14T09:16:20.421Z,0.31
2023-12-14T09:18:48.160Z,0.35
2023-12-14T09:21:16.201Z,0.37
2023-12-14T09:23:43.707Z,0.36
2023-12-14T09:26:11.810Z,0.35
2023-12-14T09:28:40.542Z,0.35
2023-12-14T09:31:09.367Z,0.36
2023-12-14T09:33:37.316Z,0.36
2023-12-14T09:36:05.373Z,0.38
2023-12-14T09:38:32.818Z,0.37
2023-12-14T09:41:00.251Z,0.35
2023-12-14T09:43:27.641Z,0.34
2023-12-14T09:45:56.115Z,0.32
2023-12-14T09:48:23.778Z,0.30
2023-12-14T09:50:51.221Z,0.30
2023-12-14T09:53:19.708Z,0.31
2023-12-14T09:55:47.525Z,0.30
2023-12-14T09:58:15.237Z,0.31
2023-12-14T10:00:42.797Z,0.31
2023-12-14T10:03:27.664Z,0.32
2023-12-14T10:05:59.395Z,0.33
2023-12-14T10:08:27.378Z,0.33
2023-12-14T10:10:56.411Z,0.36
2023-12-14T10:13:38.412Z,0.39
2023-12-14T10:16:06.875Z,0.41
2023-12-14T10:18:37.840Z,0.43
2023-12-14T10:21:08.151Z,0.44
2023-12-14T10:23:36.273Z,0.46
2023-12-14T10:26:05.913Z,0.48
2023-12-14T10:28:33.667Z,0.51
2023-12-14T10:31:01.157Z,0.56
2023-12-14T10:33:28.823Z,0.60
2023-12-14T10:35:56.511Z,0.59
2023-12-14T10:38:24.036Z,0.60
2023-12-14T10:40:52.509Z,0.60
2023-12-14T10:45:50.384Z,0.63
2023-12-14T10:48:21.764Z,0.65
2023-12-14T10:50:49.723Z,0.69
2023-12-14T10:53:17.183Z,0.71
2023-12-14T10:55:45.213Z,0.70
2023-12-14T10:58:12.865Z,0.70
2023-12-14T11:00:40.437Z,0.69
2023-12-14T11:03:08.144Z,0.72
2023-12-14T11:05:36.200Z,0.78
2023-12-14T11:08:10.476Z,0.83
2023-12-14T11:10:45.845Z,0.85
2023-12-14T11:13:16.061Z,0.87
2023-12-14T11:15:53.395Z,0.90
2023-12-14T11:18:23.968Z,0.91
2023-12-14T11:20:56.049Z,0.91
2023-12-14T11:23:26.501Z,0.92
2023-12-14T11:25:58.121Z,0.98
2023-12-14T11:28:32.095Z,0.98
2023-12-14T11:31:00.002Z,1.00
2023-12-14T11:33:29.978Z,1.00
2023-12-14T11:35:58.333Z,1.00
2023-12-14T11:38:25.906Z,1.04
2023-12-14T11:40:53.653Z,1.10
2023-12-14T11:43:26.203Z,1.14
2023-12-14T11:45:55.544Z,1.16
2023-12-14T11:48:23.386Z,1.19
2023-12-14T11:50:50.917Z,1.19
2023-12-14T11:53:18.612Z,1.16
2023-12-14T11:55:46.081Z,1.13
2023-12-14T11:58:17.089Z,1.15
2023-12-14T12:00:45.742Z,1.18
2023-12-14T12:03:17.983Z,1.20
2023-12-14T12:05:49.919Z,1.18
2023-12-14T12:08:20.453Z,1.16
2023-12-14T12:10:48.706Z,1.16
2023-12-14T12:13:17.880Z,1.18
2023-12-14T12:15:46.063Z,1.22
2023-12-14T12:18:14.877Z,1.30
2023-12-14T12:20:42.450Z,1.31
2023-12-14T12:23:10.004Z,1.32
2023-12-14T12:25:37.552Z,1.38
2023-12-14T12:28:05.518Z,1.43
2023-12-14T12:30:33.266Z,1.41
2023-12-14T12:33:01.014Z,1.41
2023-12-14T12:35:31.287Z,1.45
2023-12-14T12:37:58.705Z,1.51
2023-12-14T12:40:31.235Z,1.58
2023-12-14T12:42:58.629Z,1.66
2023-12-14T12:45:29.518Z,1.69
2023-12-14T12:47:57.786Z,1.69
2023-12-14T12:50:25.541Z,1.75
2023-12-14T12:52:53.069Z,1.82
2023-12-14T12:55:20.540Z,1.84
2023-12-14T12:57:49.303Z,1.82
2023-12-14T13:00:17.210Z,1.84
2023-12-14T13:02:46.205Z,1.85
2023-12-14T13:05:16.301Z,1.87
2023-12-14T13:07:46.556Z,1.81
2023-12-14T13:10:25.091Z,1.76
2023-12-14T13:12:57.768Z,1.75
2023-12-14T13:15:27.207Z,1.69
2023-12-14T13:17:55.298Z,1.62
2023-12-14T13:20:23.295Z,1.59
2023-12-14T13:22:51.483Z,1.57
2023-12-14T13:25:18.953Z,1.55
2023-12-14T13:27:46.496Z,1.53
2023-12-14T13:30:18.750Z,1.51
2023-12-14T13:32:47.028Z,1.54
2023-12-14T13:35:14.930Z,1.56
2023-12-14T13:37:42.749Z,1.59
2023-12-14T13:40:13.758Z,1.57
2023-12-14T13:42:50.852Z,1.55
2023-12-14T13:45:31.653Z,1.48
2023-12-14T13:48:00.239Z,1.41
2023-12-14T13:50:29.068Z,1.38
2023-12-14T13:52:57.378Z,1.33
2023-12-14T13:55:24.948Z,1.31
2023-12-14T13:57:52.645Z,1.28
2023-12-14T14:00:21.041Z,1.22
2023-12-14T14:02:48.400Z,1.18
2023-12-14T14:05:16.151Z,1.15
2023-12-14T14:07:43.741Z,1.15
2023-12-14T14:10:11.395Z,1.15
2023-12-14T14:12:39.405Z,1.15
2023-12-14T14:15:08.468Z,1.15
2023-12-14T14:17:36.244Z,1.16
2023-12-14T14:20:04.443Z,1.14
2023-12-14T14:22:32.129Z,1.12
2023-12-14T14:24:59.595Z,1.09
2023-12-14T14:27:27.224Z,1.06
2023-12-14T14:29:56.893Z,1.03
2023-12-14T14:32:24.448Z,0.99
2023-12-14T14:34:52.337Z,0.94
2023-12-14T14:37:20.363Z,0.90
2023-12-14T14:39:48.712Z,0.89
2023-12-14T14:42:16.238Z,0.88
2023-12-14T14:44:43.645Z,0.86
2023-12-14T14:47:11.186Z,0.83
2023-12-14T14:49:38.569Z,0.80
2023-12-14T14:52:06.273Z,0.79
2023-12-14T14:54:33.649Z,0.80
2023-12-14T14:57:02.863Z,0.80
2023-12-14T14:59:31.723Z,0.80
2023-12-14T15:02:01.380Z,0.84
2023-12-14T15:04:28.830Z,0.83
2023-12-14T15:06:56.653Z,0.81
2023-12-14T15:09:24.100Z,0.79
2023-12-14T15:11:51.598Z,0.76
2023-12-14T15:14:19.747Z,0.72
2023-12-14T15:16:47.961Z,0.67
2023-12-14T15:19:15.751Z,0.60
2023-12-14T15:21:43.577Z,0.56
2023-12-14T15:24:10.992Z,0.53
2023-12-14T15:26:38.478Z,0.52
2023-12-14T15:29:05.996Z,0.51
2023-12-14T15:31:33.767Z,0.51
2023-12-14T15:34:02.530Z,0.49
2023-12-14T15:36:31.178Z,0.46
2023-12-14T15:39:00.487Z,0.45
2023-12-14T15:41:29.853Z,0.45
2023-12-14T15:43:57.400Z,0.44
2023-12-14T15:46:24.808Z,0.41
2023-12-14T15:48:52.216Z,0.40
2023-12-14T15:51:19.643Z,0.41
2023-12-14T15:53:47.076Z,0.43
2023-12-14T15:56:15.684Z,0.43
2023-12-14T15:58:43.309Z,0.43
2023-12-14T16:01:11.746Z,0.41
2023-12-14T16:03:39.120Z,0.38
2023-12-14T16:06:07.103Z,0.34
2023-12-14T16:08:36.251Z,0.32
2023-12-14T16:11:03.992Z,0.29
2023-12-14T16:13:31.390Z,0.26
2023-12-14T16:15:59.306Z,0.24
2023-12-14T16:18:26.993Z,0.23
2023-12-14T16:20:55.227Z,0.21
2023-12-14T16:23:22.666Z,0.16
2023-12-14T16:25:50.873Z,0.13
2023-12-14T16:28:21.287Z,0.11
2023-12-14T16:30:48.782Z,0.07
2023-12-14T16:33:16.320Z,0.04
2023-12-14T16:35:43.814Z,0.01
2023-12-14T16:38:11.376Z,-0.02
2023-12-14T16:40:38.815Z,-0.02
2023-12-14T16:43:06.239Z,-0.03
2023-12-14T16:45:33.587Z,-0.08
2023-12-14T16:48:01.688Z,-0.17
2023-12-14T16:50:29.549Z,-0.26
2023-12-14T16:52:57.047Z,-0.35
2023-12-14T16:55:25.090Z,-0.39
2023-12-14T16:57:52.588Z,-0.41
2023-12-14T17:00:20.109Z,-0.43
2023-12-14T17:02:48.225Z,-0.47
2023-12-14T17:05:15.787Z,-0.50
2023-12-14T17:07:43.202Z,-0.55
2023-12-14T17:10:10.629Z,-0.60
2023-12-14T17:12:38.585Z,-0.66
2023-12-14T17:15:09.908Z,-0.72
2023-12-14T17:17:37.498Z,-0.77
2023-12-14T17:20:05.646Z,-0.81
2023-12-14T17:22:37.233Z,-0.84
2023-12-14T17:25:05.307Z,-0.86
2023-12-14T17:27:33.852Z,-0.88
2023-12-14T17:30:01.396Z,-0.91
2023-12-14T17:32:29.181Z,-0.92
2023-12-14T17:34:56.858Z,-0.93
2023-12-14T17:37:24.371Z,-0.92
2023-12-14T17:39:51.997Z,-0.93
2023-12-14T17:42:20.363Z,-0.93
2023-12-14T17:44:48.167Z,-0.92
2023-12-14T17:47:15.621Z,-0.91
2023-12-14T17:49:43.078Z,-0.91
2023-12-14T17:52:10.486Z,-0.94
2023-12-14T17:54:38.978Z,-0.99
2023-12-14T17:57:06.686Z,-1.05
2023-12-14T17:59:34.407Z,-1.09
2023-12-14T18:02:01.840Z,-1.13
2023-12-14T18:04:29.276Z,-1.17
2023-12-14T18:06:56.616Z,-1.20
2023-12-14T18:09:24.037Z,-1.25
2023-12-14T18:11:51.385Z,-1.30
2023-12-14T18:14:18.881Z,-1.34
2023-12-14T18:16:46.957Z,-1.37
2023-12-14T18:19:15.052Z,-1.38
2023-12-14T18:21:42.745Z,-1.42
2023-12-14T18:24:10.451Z,-1.43
2023-12-14T18:26:37.947Z,-1.45
2023-12-14T18:29:05.407Z,-1.48
2023-12-14T18:31:34.488Z,-1.50
2023-12-14T18:34:02.144Z,-1.54
2023-12-14T18:36:29.607Z,-1.61
2023-12-14T18:38:57.121Z,-1.65
2023-12-14T18:41:25.165Z,-1.70
2023-12-14T18:43:53.158Z,-1.76
2023-12-14T18:46:20.683Z,-1.81
2023-12-14T18:48:48.094Z,-1.85
2023-12-14T18:51:15.724Z,-1.89
2023-12-14T18:53:43.141Z,-1.91
2023-12-14T18:56:10.657Z,-1.93
2023-12-14T18:58:38.097Z,-1.96
2023-12-14T19:01:06.443Z,-2.00
2023-12-14T19:03:36.556Z,-2.03
2023-12-14T19:06:10.467Z,-2.07
2023-12-14T19:08:41.864Z,-2.08
2023-12-14T19:11:19.560Z,-2.09
2023-12-14T19:13:47.581Z,-2.09
2023-12-14T19:16:24.242Z,-2.09
2023-12-14T19:18:51.831Z,-2.10
2023-12-14T19:21:20.334Z,-2.12
2023-12-14T19:23:48.147Z,-2.15
2023-12-14T19:26:22.636Z,-2.19
2023-12-14T19:28:50.990Z,-2.25
2023-12-14T19:31:20.326Z,-2.30
2023-12-14T19:33:48.356Z,-2.35
2023-12-14T19:36:15.972Z,-2.37
2023-12-14T19:38:44.971Z,-2.40
2023-12-14T19:41:14.146Z,-2.44
2023-12-14T19:43:46.124Z,-2.48
2023-12-14T19:46:17.086Z,-2.52
2023-12-14T19:48:45.351Z,-2.58
2023-12-14T19:51:15.466Z,-2.63
2023-12-14T19:53:52.680Z,-2.68
2023-12-14T19:56:26.421Z,-2.70
2023-12-14T19:59:00.408Z,-2.73
2023-12-14T20:01:45.015Z,-2.72
2023-12-14T20:04:14.910Z,-2.72
2023-12-14T20:06:59.374Z,-2.72
2023-12-14T20:09:27.012Z,-2.73
2023-12-14T20:11:54.937Z,-2.75
2023-12-14T20:14:22.992Z,-2.77
2023-12-14T20:16:51.842Z,-2.77
2023-12-14T20:19:19.621Z,-2.79
2023-12-14T20:21:47.102Z,-2.82
2023-12-14T20:24:14.577Z,-2.83
2023-12-14T20:26:41.988Z,-2.86
2023-12-14T20:29:09.589Z,-2.88
2023-12-14T20:31:37.130Z,-2.88
2023-12-14T20:34:04.788Z,-2.89
2023-12-14T20:36:34.832Z,-2.91
2023-12-14T20:39:04.474Z,-2.92
2023-12-14T20:41:32.088Z,-2.92
2023-12-14T20:43:59.555Z,-2.91
2023-12-14T20:46:26.942Z,-2.90
2023-12-14T20:48:54.438Z,-2.89
2023-12-14T20:51:23.814Z,-2.89
2023-12-14T20:53:51.244Z,-2.89
2023-12-14T20:56:18.669Z,-2.90
2023-12-14T20:58:46.332Z,-2.91
2023-12-14T21:01:13.774Z,-2.92
2023-12-14T21:03:43.420Z,-2.92
2023-12-14T21:06:11.004Z,-2.92
2023-12-14T21:08:38.591Z,-2.94
2023-12-14T21:11:06.894Z,-2.95
2023-12-14T21:13:35.491Z,-2.95
2023-12-14T21:16:03.605Z,-2.94
2023-12-14T21:18:31.311Z,-2.95
2023-12-14T21:20:58.874Z,-2.96
2023-12-14T21:23:26.390Z,-2.98
2023-12-14T21:26:04.815Z,-3.00
2023-12-14T21:28:32.473Z,-3.02
2023-12-14T21:31:00.103Z,-3.04
2023-12-14T21:33:28.758Z,-3.05
2023-12-14T21:35:56.640Z,-3.08
2023-12-14T21:38:24.087Z,-3.10
2023-12-14T21:40:51.545Z,-3.12
2023-12-14T21:43:20.735Z,-3.12
2023-12-14T21:45:48.114Z,-3.11
2023-12-14T21:48:16.488Z,-3.10
2023-12-14T21:50:43.911Z,-3.11
2023-12-14T21:53:11.423Z,-3.15
2023-12-14T21:55:38.786Z,-3.17
2023-12-14T21:58:06.220Z,-3.20
2023-12-14T22:00:33.626Z,-3.22
2023-12-14T22:03:01.065Z,-3.23
2023-12-14T22:05:28.669Z,-3.25
2023-12-14T22:07:56.215Z,-3.27
2023-12-14T22:10:23.843Z,-3.28
2023-12-14T22:12:51.155Z,-3.29
2023-12-14T22:15:19.118Z,-3.32
2023-12-14T22:17:47.863Z,-3.36
2023-12-14T22:20:15.380Z,-3.39
2023-12-14T22:22:42.794Z,-3.41
2023-12-14T22:25:10.243Z,-3.43
2023-12-14T22:27:37.905Z,-3.43
2023-12-14T22:30:08.761Z,-3.45
2023-12-14T22:32:36.349Z,-3.47
2023-12-14T22:35:03.942Z,-3.47
2023-12-14T22:37:31.458Z,-3.45
2023-12-14T22:39:58.839Z,-3.44
2023-12-14T22:42:26.273Z,-3.42
2023-12-14T22:44:53.626Z,-3.41
2023-12-14T22:47:20.978Z,-3.40
2023-12-14T22:49:48.607Z,-3.40
2023-12-14T22:52:16.128Z,-3.39
2023-12-14T22:54:43.481Z,-3.38
2023-12-14T22:57:10.840Z,-3.36
2023-12-14T22:59:40.024Z,-3.34
2023-12-14T23:02:07.518Z,-3.33
2023-12-14T23:04:35.265Z,-3.33
2023-12-14T23:07:03.310Z,-3.36
2023-12-14T23:09:30.781Z,-3.36
2023-12-14T23:11:59.290Z,-3.37
2023-12-14T23:14:26.705Z,-3.38
2023-12-14T23:16:54.548Z,-3.38
2023-12-14T23:19:22.104Z,-3.40
2023-12-14T23:21:49.509Z,-3.42
2023-12-14T23:24:16.918Z,-3.43
2023-12-14T23:26:44.341Z,-3.42
2023-12-14T23:29:11.785Z,-3.42
2023-12-14T23:31:39.122Z,-3.41
2023-12-14T23:34:06.490Z,-3.41
2023-12-14T23:36:33.961Z,-3.41
2023-12-14T23:39:01.473Z,-3.41
2023-12-14T23:41:28.880Z,-3.41
2023-12-14T23:43:56.621Z,-3.40
2023-12-14T23:46:24.081Z,-3.38
2023-12-14T23:48:51.635Z,-3.37
2023-12-14T23:51:18.994Z,-3.35
2023-12-14T23:53:46.430Z,-3.36
2023-12-14T23:56:13.891Z,-3.35
2023-12-14T23:58:41.240Z,-3.36
